Time;durP1;ratioP1;P1;durP2;ratioP2;P2;SDS_P1;SDS_P2;PMS_P1;PMS_P2;Temp;Humidity;BMP_temperature;BMP_pressure;BME280_temperature;BME280_humidity;BME280_pressure;Samples;Min_cycle;Max_cycle;Signal;HPM_P1;HPM_P2
2021/05/03 00:01:46;;;;;;;3.37;3.10;;;4.70;99.90;;;;;;5035286;28;20431;-80
2021/05/03 00:04:14;;;;;;;3.90;3.60;;;4.70;99.40;;;;;;5040274;28;20193;-84
2021/05/03 00:06:41;;;;;;;2.90;2.70;;;4.60;98.60;;;;;;5040099;28;20193;-83
2021/05/03 00:09:09;;;;;;;3.27;2.97;;;4.50;96.90;;;;;;5037978;28;20402;-81
2021/05/03 00:11:37;;;;;;;3.50;2.90;;;4.60;97.20;;;;;;5037008;28;20554;-83
2021/05/03 00:14:05;;;;;;;3.10;2.80;;;4.60;97.60;;;;;;5042142;28;20200;-84
2021/05/03 00:16:33;;;;;;;2.50;2.30;;;4.60;97.50;;;;;;5041510;28;20546;-81
2021/05/03 00:19:01;;;;;;;2.60;2.40;;;4.60;96.50;;;;;;5038938;28;20286;-81
2021/05/03 00:21:28;;;;;;;2.27;2.10;;;4.60;96.00;;;;;;5043841;28;20233;-81
2021/05/03 00:23:56;;;;;;;2.73;2.47;;;4.60;96.20;;;;;;5040133;28;20223;-83
2021/05/03 00:26:23;;;;;;;3.30;2.90;;;4.60;95.90;;;;;;5040303;28;20201;-82
2021/05/03 00:28:51;;;;;;;3.60;3.00;;;4.70;96.30;;;;;;5031789;28;20212;-81
2021/05/03 00:31:19;;;;;;;2.93;2.73;;;4.70;95.60;;;;;;5032507;28;20219;-82
2021/05/03 00:33:47;;;;;;;3.87;3.57;;;4.70;95.70;;;;;;5039753;28;20208;-84
2021/05/03 00:36:15;;;;;;;4.00;3.70;;;4.70;96.30;;;;;;5036765;28;20227;-82
2021/05/03 00:38:43;;;;;;;5.00;4.60;;;4.60;95.70;;;;;;5038325;28;20492;-81
2021/05/03 00:41:10;;;;;;;4.97;4.53;;;4.70;96.10;;;;;;5042085;28;20213;-81
2021/05/03 00:43:38;;;;;;;5.33;4.83;;;4.70;96.20;;;;;;5039939;28;20284;-84
2021/05/03 00:46:07;;;;;;;5.00;4.50;;;4.70;95.80;;;;;;5035105;28;20227;-82
2021/05/03 00:48:35;;;;;;;4.60;4.13;;;4.70;96.20;;;;;;5036279;28;20276;-80
2021/05/03 00:51:03;;;;;;;4.93;4.53;;;4.70;95.70;;;;;;5043367;28;20204;-82
2021/05/03 00:53:31;;;;;;;3.90;3.60;;;4.70;95.40;;;;;;5038238;28;20221;-83
2021/05/03 00:56:04;;;;;;;4.43;4.13;;;4.80;95.00;;;;;;5044205;28;20185;-83
2021/05/03 00:58:34;;;;;;;4.30;4.00;;;4.80;95.40;;;;;;5036916;28;20225;-82
2021/05/03 01:01:02;;;;;;;4.17;3.87;;;4.80;95.20;;;;;;5040230;28;20196;-83
2021/05/03 01:03:29;;;;;;;4.00;3.70;;;4.90;95.50;;;;;;5039026;28;20208;-84
2021/05/03 01:05:57;;;;;;;3.60;3.30;;;4.90;94.20;;;;;;5041300;28;20463;-82
2021/05/03 01:08:26;;;;;;;4.07;3.70;;;4.90;93.40;;;;;;5038246;28;20244;-83
2021/05/03 01:10:53;;;;;;;3.50;3.20;;;4.80;93.50;;;;;;5038921;28;20223;-82
2021/05/03 01:13:21;;;;;;;4.23;3.60;;;4.90;93.40;;;;;;5039162;28;20223;-82
2021/05/03 01:15:48;;;;;;;3.67;3.37;;;4.80;93.40;;;;;;5039536;28;20262;-83
2021/05/03 01:18:22;;;;;;;3.77;3.37;;;4.90;93.60;;;;;;5034108;28;20213;-80
2021/05/03 01:20:55;;;;;;;3.70;3.40;;;4.90;94.10;;;;;;5036771;28;20211;-83
2021/05/03 01:23:22;;;;;;;3.50;3.20;;;4.90;93.90;;;;;;5034772;28;20213;-81
2021/05/03 01:25:50;;;;;;;3.13;2.93;;;4.90;93.60;;;;;;5015313;28;20208;-81
2021/05/03 01:28:19;;;;;;;3.07;2.77;;;4.90;93.40;;;;;;5023495;28;20228;-83
2021/05/03 01:30:47;;;;;;;3.13;2.87;;;4.90;93.20;;;;;;5018897;28;20201;-82
2021/05/03 01:33:18;;;;;;;3.17;2.87;;;4.90;93.20;;;;;;5011484;28;20802;-83
2021/05/03 01:35:47;;;;;;;3.23;3.03;;;4.90;93.50;;;;;;5017309;28;20606;-82
2021/05/03 01:38:16;;;;;;;4.07;2.97;;;4.90;93.10;;;;;;5012950;28;20709;-79
2021/05/03 01:40:46;;;;;;;3.10;2.80;;;4.90;93.00;;;;;;5012845;28;21222;-82
2021/05/03 01:43:16;;;;;;;3.37;3.10;;;4.90;93.20;;;;;;5024340;28;20217;-82
2021/05/03 01:45:45;;;;;;;3.80;3.30;;;4.90;93.10;;;;;;5018681;28;20298;-81
2021/05/03 01:48:14;;;;;;;3.77;3.20;;;4.90;93.30;;;;;;5018044;28;20213;-82
2021/05/03 01:50:42;;;;;;;3.73;3.30;;;4.90;93.30;;;;;;5016707;28;20253;-81
2021/05/03 01:53:11;;;;;;;3.33;3.10;;;4.90;93.10;;;;;;5018842;28;20717;-81
2021/05/03 01:55:44;;;;;;;3.30;3.07;;;4.90;93.30;;;;;;5011097;28;20236;-82
2021/05/03 01:58:13;;;;;;;3.73;3.43;;;4.90;93.30;;;;;;5007997;28;20344;-87
2021/05/03 02:00:41;;;;;;;3.90;3.50;;;4.90;93.40;;;;;;5012584;28;20236;-83
2021/05/03 02:03:18;;;;;;;3.93;3.53;;;4.90;93.60;;;;;;5014979;28;20518;-81
2021/05/03 02:05:46;;;;;;;4.40;4.00;;;4.90;93.60;;;;;;5023339;28;20348;-80
2021/05/03 02:08:14;;;;;;;4.00;3.67;;;4.90;93.70;;;;;;5007774;28;20474;-81
2021/05/03 02:10:42;;;;;;;3.93;3.63;;;4.90;94.00;;;;;;5022222;28;20210;-81
2021/05/03 02:13:10;;;;;;;4.37;3.97;;;4.90;93.70;;;;;;5019024;28;20237;-84
2021/05/03 02:15:38;;;;;;;4.37;4.00;;;4.90;94.20;;;;;;5011615;28;20201;-83
2021/05/03 02:18:06;;;;;;;4.80;4.40;;;4.90;94.20;;;;;;5010147;28;20502;-81
2021/05/03 02:20:34;;;;;;;4.80;4.40;;;4.90;94.60;;;;;;5008730;28;20213;-84
2021/05/03 02:23:02;;;;;;;5.03;4.40;;;4.90;95.10;;;;;;5014139;28;20209;-80
2021/05/03 02:25:29;;;;;;;4.77;4.33;;;4.90;95.40;;;;;;5008560;28;20238;-81
2021/05/03 02:27:59;;;;;;;4.87;4.37;;;4.90;95.70;;;;;;5008080;28;20271;-83
2021/05/03 02:30:27;;;;;;;5.47;4.80;;;4.90;95.70;;;;;;5014345;28;20209;-84
2021/05/03 02:32:55;;;;;;;6.23;5.00;;;4.90;96.50;;;;;;5009508;28;20256;-83
2021/05/03 02:35:24;;;;;;;6.27;5.60;;;4.90;97.00;;;;;;5019074;28;20476;-82
2021/05/03 02:37:55;;;;;;;5.53;5.03;;;4.90;97.10;;;;;;5020845;28;20206;-82
2021/05/03 02:40:24;;;;;;;5.77;5.20;;;4.90;96.70;;;;;;5015235;28;20217;-82
2021/05/03 02:42:54;;;;;;;5.33;4.83;;;5.20;97.00;;;;;;5017797;28;20209;-83
2021/05/03 02:45:23;;;;;;;6.60;5.40;;;5.10;96.40;;;;;;5025810;28;20292;-79
2021/05/03 02:47:51;;;;;;;6.10;5.50;;;5.00;96.60;;;;;;5020504;28;20625;-83
2021/05/03 02:50:21;;;;;;;7.47;5.47;;;5.00;96.30;;;;;;5019754;28;20214;-82
2021/05/03 02:52:50;;;;;;;7.03;5.30;;;5.00;95.90;;;;;;5012367;28;20229;-82
2021/05/03 02:55:17;;;;;;;5.83;5.23;;;5.00;95.90;;;;;;5019722;28;20206;-82
2021/05/03 02:57:47;;;;;;;7.73;5.47;;;5.10;96.40;;;;;;5012811;28;20211;-83
2021/05/03 03:00:16;;;;;;;6.30;5.70;;;5.00;95.90;;;;;;5023636;28;20214;-84
2021/05/03 03:02:45;;;;;;;5.97;5.37;;;5.00;96.20;;;;;;5023336;28;20572;-81
2021/05/03 03:05:13;;;;;;;7.50;5.87;;;5.00;96.40;;;;;;5029959;28;20214;-83
2021/05/03 03:07:40;;;;;;;5.70;5.10;;;5.00;97.40;;;;;;5020410;28;20207;-83
2021/05/03 03:10:09;;;;;;;6.03;5.43;;;5.00;96.90;;;;;;5019699;28;20210;-83
2021/05/03 03:12:37;;;;;;;6.43;5.83;;;5.00;96.60;;;;;;5017467;28;20276;-80
2021/05/03 03:15:05;;;;;;;5.87;5.37;;;5.00;96.30;;;;;;5032529;28;20206;-82
2021/05/03 03:17:33;;;;;;;5.83;5.23;;;5.00;96.20;;;;;;5031230;28;20212;-82
2021/05/03 03:20:01;;;;;;;5.80;5.20;;;5.00;96.40;;;;;;5036000;28;20205;-82
2021/05/03 03:22:29;;;;;;;5.93;5.17;;;5.00;96.00;;;;;;5035495;28;20202;-80
2021/05/03 03:24:57;;;;;;;5.57;5.00;;;5.00;95.50;;;;;;5030306;28;20262;-81
2021/05/03 03:27:24;;;;;;;6.60;5.23;;;5.00;96.10;;;;;;5025062;28;20549;-82
2021/05/03 03:29:52;;;;;;;5.20;4.70;;;5.00;96.30;;;;;;5023152;28;20215;-81
2021/05/03 03:32:19;;;;;;;5.20;4.73;;;5.00;95.80;;;;;;5030520;28;20199;-81
2021/05/03 03:34:47;;;;;;;5.53;4.80;;;5.00;95.70;;;;;;5032141;28;20206;-81
2021/05/03 03:37:16;;;;;;;5.83;5.23;;;5.00;95.70;;;;;;5031921;28;20730;-81
2021/05/03 03:39:43;;;;;;;5.47;4.90;;;5.00;96.20;;;;;;5033243;28;20210;-82
2021/05/03 03:42:11;;;;;;;6.50;5.50;;;5.00;95.50;;;;;;5026302;28;20434;-82
2021/05/03 03:44:39;;;;;;;4.83;4.43;;;5.10;94.80;;;;;;5024653;28;20218;-83
2021/05/03 03:47:07;;;;;;;5.83;4.47;;;5.10;95.20;;;;;;5025642;28;20207;-81
2021/05/03 03:49:35;;;;;;;5.10;4.60;;;5.10;95.20;;;;;;5024309;28;20202;-82
2021/05/03 03:52:03;;;;;;;5.20;4.70;;;5.10;95.50;;;;;;5019471;28;20221;-83
2021/05/03 03:54:31;;;;;;;5.87;5.07;;;5.10;94.40;;;;;;5021179;28;20253;-81
2021/05/03 03:56:59;;;;;;;4.77;4.23;;;5.10;94.80;;;;;;5012671;28;21688;-82
2021/05/03 03:59:26;;;;;;;6.90;4.90;;;5.10;94.40;;;;;;5012812;28;20210;-81
2021/05/03 04:01:54;;;;;;;4.10;3.80;;;5.10;94.60;;;;;;5018075;28;20206;-82
2021/05/03 04:04:25;;;;;;;4.70;4.13;;;5.10;94.50;;;;;;5017596;28;20293;-83
2021/05/03 04:06:56;;;;;;;6.43;5.77;;;5.10;94.40;;;;;;5019797;28;20592;-81
2021/05/03 04:09:31;;;;;;;5.10;4.00;;;5.10;94.90;;;;;;5014823;28;20213;-81
2021/05/03 04:12:14;;;;;;;4.80;4.30;;;5.10;94.90;;;;;;5015192;28;20230;-81
2021/05/03 04:25:47;;;;;;;3.53;3.23;;;5.30;93.80;;;;;;4993771;28;20284;-83
2021/05/03 04:28:15;;;;;;;3.90;3.60;;;5.20;93.50;;;;;;5011877;28;20989;-81
2021/05/03 04:30:43;;;;;;;4.17;3.33;;;5.40;93.30;;;;;;5017582;28;20292;-82
2021/05/03 04:33:10;;;;;;;3.87;3.20;;;5.30;93.00;;;;;;5015434;28;20669;-83
2021/05/03 04:35:38;;;;;;;3.33;3.07;;;5.40;92.70;;;;;;5029455;28;20676;-80
2021/05/03 04:38:05;;;;;;;3.90;2.97;;;5.40;92.30;;;;;;5016193;28;20276;-80
2021/05/03 04:40:33;;;;;;;3.80;3.13;;;5.40;92.50;;;;;;5021451;28;20727;-81
2021/05/03 04:43:01;;;;;;;5.73;2.97;;;5.50;92.50;;;;;;5019331;28;20463;-80
2021/05/03 04:45:29;;;;;;;4.57;2.90;;;5.50;92.30;;;;;;5024754;28;20234;-81
2021/05/03 04:47:57;;;;;;;3.30;2.97;;;5.50;92.90;;;;;;5014477;28;20207;-84
2021/05/03 04:50:24;;;;;;;5.67;2.83;;;5.60;92.20;;;;;;5027429;28;20206;-80
2021/05/03 04:52:52;;;;;;;3.77;3.10;;;5.60;91.90;;;;;;5027053;28;20237;-84
2021/05/03 04:55:20;;;;;;;3.20;2.63;;;5.70;91.80;;;;;;5029078;28;20219;-81
2021/05/03 04:57:48;;;;;;;4.17;2.70;;;5.60;91.70;;;;;;5007908;28;20212;-81
2021/05/03 05:00:16;;;;;;;2.90;2.60;;;5.70;91.30;;;;;;5018521;28;20820;-82
2021/05/03 05:02:45;;;;;;;3.03;2.67;;;5.70;90.90;;;;;;5016170;28;20203;-82
2021/05/03 05:05:13;;;;;;;3.37;2.90;;;5.70;90.50;;;;;;5019055;28;20539;-83
2021/05/03 05:07:41;;;;;;;3.80;2.90;;;5.80;90.60;;;;;;5012184;28;20672;-82
2021/05/03 05:10:10;;;;;;;4.57;2.90;;;5.80;90.30;;;;;;5012866;28;20211;-83
2021/05/03 05:12:38;;;;;;;4.13;2.93;;;5.80;90.00;;;;;;5016845;28;20430;-80
2021/05/03 05:15:08;;;;;;;3.80;2.70;;;5.90;90.10;;;;;;5013334;28;21096;-84
2021/05/03 05:17:37;;;;;;;3.60;3.03;;;5.80;90.30;;;;;;5013086;28;20212;-83
2021/05/03 05:20:07;;;;;;;4.80;2.70;;;5.90;90.30;;;;;;5015506;28;20209;-83
2021/05/03 05:22:37;;;;;;;3.40;2.40;;;5.90;90.00;;;;;;5019231;28;20704;-84
2021/05/03 05:25:05;;;;;;;3.10;2.80;;;6.00;90.20;;;;;;5015311;28;20608;-82
2021/05/03 05:27:33;;;;;;;2.80;2.60;;;6.00;90.10;;;;;;5018248;28;20666;-82
2021/05/03 05:30:00;;;;;;;3.53;2.80;;;6.10;90.30;;;;;;5013705;28;20214;-84
2021/05/03 05:32:28;;;;;;;4.53;2.60;;;6.10;90.60;;;;;;5020417;28;20212;-81
2021/05/03 05:34:55;;;;;;;3.40;2.77;;;6.20;90.30;;;;;;5014241;28;20214;-85
2021/05/03 05:37:24;;;;;;;3.97;2.83;;;6.20;89.90;;;;;;5022256;28;20587;-79
2021/05/03 05:39:52;;;;;;;2.97;2.67;;;6.30;89.30;;;;;;5028799;28;20180;-83
2021/05/03 05:42:20;;;;;;;3.37;3.03;;;6.30;89.40;;;;;;5041347;28;20275;-84
2021/05/03 05:44:47;;;;;;;4.17;3.60;;;6.40;89.50;;;;;;5026564;28;20204;-79
2021/05/03 05:47:18;;;;;;;3.43;3.13;;;6.50;89.10;;;;;;5023352;28;20676;-87
2021/05/03 05:49:48;;;;;;;3.87;3.17;;;6.50;88.70;;;;;;5016947;28;20247;-83
2021/05/03 05:52:16;;;;;;;5.47;3.40;;;6.60;89.10;;;;;;5015581;28;20221;-82
2021/05/03 05:54:45;;;;;;;3.93;3.10;;;6.70;88.90;;;;;;5013856;28;20481;-83
2021/05/03 05:57:12;;;;;;;4.30;3.03;;;6.80;89.00;;;;;;5019176;28;20200;-85
2021/05/03 05:59:41;;;;;;;4.43;3.30;;;6.90;88.50;;;;;;5018162;28;20257;-81
2021/05/03 06:02:09;;;;;;;4.93;3.30;;;6.80;87.50;;;;;;5030841;28;20305;-81
2021/05/03 06:04:37;;;;;;;4.63;3.23;;;6.80;88.00;;;;;;5026776;28;20200;-80
2021/05/03 06:07:05;;;;;;;3.50;3.20;;;7.00;88.10;;;;;;5016175;28;20204;-82
2021/05/03 06:09:53;;;;;;;4.47;3.20;;;6.90;87.20;;;;;;5017049;28;21067;-80
2021/05/03 06:12:22;;;;;;;4.97;3.23;;;7.00;87.70;;;;;;5017878;28;20269;-83
2021/05/03 06:14:49;;;;;;;4.77;3.33;;;7.10;87.60;;;;;;5021704;28;20229;-83
2021/05/03 06:17:18;;;;;;;5.33;3.27;;;7.20;86.80;;;;;;5017046;28;20649;-82
2021/05/03 06:19:46;;;;;;;3.30;2.87;;;7.30;86.30;;;;;;5020641;28;20336;-81
2021/05/03 06:22:14;;;;;;;3.00;2.70;;;7.40;86.30;;;;;;5032715;28;20377;-83
2021/05/03 06:24:43;;;;;;;3.50;3.20;;;7.40;84.90;;;;;;5030648;28;20213;-82
2021/05/03 06:27:11;;;;;;;4.03;3.10;;;7.40;84.90;;;;;;5020860;28;20243;-80
2021/05/03 06:29:39;;;;;;;3.40;2.73;;;7.50;85.20;;;;;;5028481;28;20683;-82
2021/05/03 06:32:07;;;;;;;2.97;2.77;;;7.50;84.40;;;;;;5019763;28;20707;-80
2021/05/03 06:34:36;;;;;;;3.47;2.57;;;7.60;84.90;;;;;;5022953;28;20221;-82
2021/05/03 06:37:04;;;;;;;2.97;2.57;;;7.70;84.60;;;;;;5018392;28;20209;-83
2021/05/03 06:39:32;;;;;;;3.43;2.80;;;7.80;83.60;;;;;;5023444;28;20202;-83
2021/05/03 06:42:00;;;;;;;4.70;3.20;;;7.90;83.40;;;;;;5019313;28;20218;-82
2021/05/03 06:44:29;;;;;;;4.27;3.50;;;8.10;83.20;;;;;;5019776;28;20723;-81
2021/05/03 06:46:58;;;;;;;3.70;3.10;;;8.00;82.70;;;;;;5023456;28;20203;-83
2021/05/03 06:49:26;;;;;;;4.03;3.10;;;7.90;83.20;;;;;;5020826;28;20221;-82
2021/05/03 06:51:54;;;;;;;3.63;2.83;;;7.90;83.20;;;;;;5022059;28;20210;-81
2021/05/03 06:54:22;;;;;;;3.20;2.90;;;8.00;83.10;;;;;;5020252;28;20813;-82
2021/05/03 06:56:50;;;;;;;3.97;3.00;;;7.90;82.80;;;;;;5029087;28;20247;-81
2021/05/03 06:59:20;;;;;;;4.00;2.97;;;7.80;82.80;;;;;;5020500;28;20273;-83
2021/05/03 07:01:52;;;;;;;3.00;2.73;;;7.70;82.90;;;;;;5022596;28;20209;-80
2021/05/03 07:04:20;;;;;;;4.40;3.17;;;7.50;82.00;;;;;;5020200;28;20209;-82
2021/05/03 07:06:49;;;;;;;4.23;2.90;;;7.30;82.10;;;;;;5024933;28;20207;-80
2021/05/03 07:09:17;;;;;;;5.37;2.83;;;7.30;82.50;;;;;;5024061;28;20223;-83
2021/05/03 07:11:46;;;;;;;3.23;2.23;;;7.50;82.80;;;;;;5026797;28;20206;-80
2021/05/03 07:14:13;;;;;;;2.93;2.20;;;7.60;81.60;;;;;;5017861;28;20478;-81
2021/05/03 07:16:41;;;;;;;2.43;2.23;;;7.70;80.90;;;;;;5023422;28;20197;-82
2021/05/03 07:19:10;;;;;;;2.60;2.23;;;7.70;79.40;;;;;;5016083;28;20211;-81
2021/05/03 07:21:38;;;;;;;2.80;2.40;;;7.70;79.90;;;;;;5037304;28;20206;-81
2021/05/03 07:24:07;;;;;;;2.67;2.07;;;7.80;79.20;;;;;;5038415;28;20233;-84
2021/05/03 07:26:40;;;;;;;3.37;2.40;;;8.00;79.60;;;;;;5041841;28;20198;-83
2021/05/03 07:29:08;;;;;;;2.30;2.00;;;8.30;80.00;;;;;;5041718;28;20261;-82
2021/05/03 07:31:36;;;;;;;4.83;2.60;;;8.60;78.90;;;;;;5042191;28;20198;-82
2021/05/03 07:34:04;;;;;;;2.97;2.67;;;8.70;78.50;;;;;;5024802;28;20273;-83
2021/05/03 07:36:32;;;;;;;3.03;2.40;;;8.80;78.80;;;;;;5020424;28;20261;-79
2021/05/03 07:39:00;;;;;;;3.30;2.30;;;8.90;78.10;;;;;;5028605;28;20211;-81
2021/05/03 07:41:28;;;;;;;4.57;2.43;;;9.10;78.30;;;;;;5034190;28;20203;-83
2021/05/03 07:43:55;;;;;;;2.30;2.10;;;9.40;78.50;;;;;;5033364;28;20242;-82
2021/05/03 07:46:25;;;;;;;2.73;1.93;;;9.60;77.70;;;;;;5025485;28;20260;-80
2021/05/03 07:48:53;;;;;;;2.40;2.20;;;9.80;76.10;;;;;;5022900;28;20202;-83
2021/05/03 07:51:21;;;;;;;2.30;2.10;;;9.50;76.40;;;;;;5020148;28;20195;-82
2021/05/03 07:53:50;;;;;;;3.67;1.97;;;9.40;75.90;;;;;;5025591;28;20231;-83
2021/05/03 07:56:18;;;;;;;6.20;2.00;;;9.40;75.90;;;;;;5013822;28;20220;-81
2021/05/03 07:58:47;;;;;;;3.83;2.00;;;9.40;75.30;;;;;;5017221;28;20220;-82
2021/05/03 08:01:17;;;;;;;2.20;2.03;;;9.30;74.80;;;;;;5032273;28;20207;-83
2021/05/03 08:03:45;;;;;;;2.60;2.40;;;9.50;74.50;;;;;;5038028;28;20234;-81
2021/05/03 08:06:15;;;;;;;2.50;2.30;;;9.60;75.30;;;;;;5020312;28;20550;-82
2021/05/03 08:08:44;;;;;;;3.03;2.33;;;9.80;74.70;;;;;;5016608;28;20205;-82
2021/05/03 08:11:15;;;;;;;2.50;2.30;;;9.70;75.00;;;;;;5028828;28;20210;-80
2021/05/03 08:13:44;;;;;;;2.47;2.10;;;9.70;75.70;;;;;;5019773;28;20616;-82
2021/05/03 08:16:18;;;;;;;2.17;2.00;;;9.70;74.80;;;;;;5021064;28;20260;-84
2021/05/03 08:18:45;;;;;;;1.87;1.70;;;9.70;74.20;;;;;;5027624;28;20252;-80
2021/05/03 08:21:13;;;;;;;1.60;1.50;;;9.80;73.50;;;;;;5020499;28;20234;-84
2021/05/03 08:23:41;;;;;;;3.87;1.90;;;9.70;72.30;;;;;;5019672;28;20421;-84
2021/05/03 08:26:10;;;;;;;2.53;1.87;;;9.60;72.00;;;;;;5015016;28;20233;-83
2021/05/03 08:28:40;;;;;;;1.63;1.53;;;9.50;73.00;;;;;;5013470;28;20215;-82
2021/05/03 08:31:08;;;;;;;3.23;1.60;;;9.50;71.80;;;;;;5020649;28;20595;-81
2021/05/03 08:33:35;;;;;;;1.67;1.57;;;9.50;71.80;;;;;;5017709;28;20235;-81
2021/05/03 08:36:04;;;;;;;2.70;1.73;;;9.50;72.10;;;;;;5019973;28;20211;-82
2021/05/03 08:38:31;;;;;;;2.27;1.60;;;9.30;72.50;;;;;;5012610;28;20474;-81
2021/05/03 08:41:02;;;;;;;1.87;1.50;;;9.30;73.40;;;;;;5017981;28;20542;-83
2021/05/03 08:43:31;;;;;;;1.90;1.80;;;9.30;72.70;;;;;;5013408;28;20206;-83
2021/05/03 08:45:59;;;;;;;2.53;1.83;;;9.40;73.30;;;;;;5026456;28;20202;-83
2021/05/03 08:48:34;;;;;;;2.10;1.90;;;9.80;74.20;;;;;;5014552;28;20738;-83
2021/05/03 08:51:10;;;;;;;1.80;1.70;;;10.20;72.00;;;;;;5019888;28;20213;-85
2021/05/03 08:53:42;;;;;;;2.63;1.70;;;10.30;71.70;;;;;;5016956;28;20233;-81
2021/05/03 08:56:10;;;;;;;2.37;1.80;;;10.20;72.10;;;;;;5021922;28;20206;-81
2021/05/03 08:58:39;;;;;;;2.30;2.00;;;10.20;72.30;;;;;;5018253;28;20217;-82
2021/05/03 09:01:08;;;;;;;2.87;1.93;;;10.20;72.50;;;;;;5027916;28;20208;-82
2021/05/03 09:03:43;;;;;;;1.90;1.70;;;10.30;71.60;;;;;;5021478;28;20217;-83
2021/05/03 09:06:11;;;;;;;2.40;1.70;;;10.20;71.60;;;;;;5028656;28;20211;-82
2021/05/03 09:08:39;;;;;;;2.03;1.90;;;10.40;70.90;;;;;;5020907;28;20226;-82
2021/05/03 09:11:07;;;;;;;2.90;1.70;;;10.20;70.30;;;;;;5019438;28;20214;-81
2021/05/03 09:13:39;;;;;;;2.07;1.87;;;9.90;70.80;;;;;;5012943;28;20235;-85
2021/05/03 09:16:20;;;;;;;1.70;1.60;;;9.80;70.30;;;;;;5023119;28;20203;-81
2021/05/03 09:18:48;;;;;;;2.20;2.00;;;9.90;69.40;;;;;;5020937;28;20270;-82
2021/05/03 09:21:20;;;;;;;3.40;1.80;;;10.30;70.00;;;;;;5017508;28;20206;-84
2021/05/03 09:24:08;;;;;;;1.97;1.87;;;10.60;70.20;;;;;;5025125;28;20632;-82
2021/05/03 09:26:40;;;;;;;1.77;1.63;;;10.60;68.40;;;;;;5027071;28;20249;-84
2021/05/03 09:29:31;;;;;;;1.70;1.57;;;10.80;67.70;;;;;;5020052;28;20213;-84
2021/05/03 09:32:02;;;;;;;2.20;1.53;;;10.70;66.20;;;;;;5022692;28;20213;-83
2021/05/03 09:34:31;;;;;;;1.50;1.40;;;10.40;67.90;;;;;;5016589;28;20242;-86
2021/05/03 09:37:16;;;;;;;1.27;1.13;;;10.40;68.20;;;;;;5023015;28;20214;-80
2021/05/03 09:39:52;;;;;;;2.20;1.70;;;10.00;68.70;;;;;;5019689;28;20327;-82
2021/05/03 09:42:20;;;;;;;2.87;1.77;;;9.80;69.70;;;;;;5020718;28;20708;-84
2021/05/03 09:45:06;;;;;;;4.00;2.07;;;9.90;70.20;;;;;;5021246;28;20199;-83
2021/05/03 09:47:37;;;;;;;2.20;1.63;;;9.90;70.10;;;;;;5014150;28;20241;-84
2021/05/03 09:50:08;;;;;;;2.00;1.90;;;10.00;69.80;;;;;;5016152;28;20409;-85
2021/05/03 09:52:36;;;;;;;2.00;1.80;;;10.10;71.00;;;;;;5018626;28;20210;-80
2021/05/03 09:55:24;;;;;;;2.37;2.00;;;10.30;70.40;;;;;;5023865;28;20227;-81
2021/05/03 09:58:10;;;;;;;2.70;2.10;;;10.40;71.20;;;;;;5023225;28;20419;-81
2021/05/03 10:00:39;;;;;;;2.77;2.57;;;10.20;70.70;;;;;;5024789;28;20271;-81
2021/05/03 10:03:38;;;;;;;2.33;1.97;;;10.00;71.40;;;;;;5026980;28;20237;-82
2021/05/03 10:06:09;;;;;;;4.77;2.50;;;10.20;72.40;;;;;;5019722;28;20884;-83
2021/05/03 10:08:37;;;;;;;2.87;2.30;;;10.60;72.80;;;;;;5012667;28;20209;-81
2021/05/03 10:11:08;;;;;;;2.40;1.83;;;10.90;72.60;;;;;;5015239;28;20241;-83
2021/05/03 10:13:39;;;;;;;2.87;2.20;;;11.10;72.60;;;;;;5014761;28;20229;-82
2021/05/03 10:16:08;;;;;;;2.53;2.30;;;11.10;71.80;;;;;;5027882;28;20214;-83
2021/05/03 10:18:38;;;;;;;2.50;2.30;;;10.90;72.30;;;;;;5023490;28;20201;-83
2021/05/03 10:21:08;;;;;;;2.60;2.40;;;10.80;72.70;;;;;;5041544;28;20234;-84
2021/05/03 10:23:38;;;;;;;2.43;2.23;;;10.70;73.40;;;;;;5026234;28;20218;-83
2021/05/03 10:26:06;;;;;;;2.83;2.30;;;10.80;74.00;;;;;;5024391;28;20213;-83
2021/05/03 10:28:50;;;;;;;3.00;1.90;;;11.00;73.20;;;;;;5028548;28;20202;-82
2021/05/03 10:31:18;;;;;;;2.50;2.30;;;11.00;70.70;;;;;;5035631;28;20194;-83
2021/05/03 10:33:46;;;;;;;3.63;2.30;;;10.80;70.20;;;;;;5028357;28;20243;-81
2021/05/03 10:36:33;;;;;;;3.20;2.63;;;10.50;70.70;;;;;;5035684;28;20756;-80
2021/05/03 10:39:01;;;;;;;2.90;2.70;;;10.40;71.70;;;;;;5035949;28;20209;-84
2021/05/03 10:41:31;;;;;;;3.50;2.80;;;10.20;72.30;;;;;;5038886;28;20201;-81
2021/05/03 10:44:14;;;;;;;3.20;2.90;;;10.30;72.80;;;;;;5038227;28;20221;-83
2021/05/03 10:49:33;;;;;;;4.13;2.60;;;10.60;73.80;;;;;;5029771;28;20213;-86
2021/05/03 10:52:03;;;;;;;2.70;2.50;;;10.50;73.60;;;;;;5028900;28;20214;-82
2021/05/03 10:54:36;;;;;;;3.47;2.57;;;10.20;74.10;;;;;;5033281;28;20928;-86
2021/05/03 10:57:06;;;;;;;2.30;2.10;;;10.10;74.30;;;;;;5034749;28;20199;-84
2021/05/03 10:59:48;;;;;;;2.60;2.40;;;9.90;76.10;;;;;;5035399;28;20205;-85
2021/05/03 11:02:18;;;;;;;3.00;2.70;;;9.70;76.50;;;;;;5040592;28;20199;-85
2021/05/03 11:05:11;;;;;;;3.73;2.50;;;9.70;75.70;;;;;;5038418;28;20223;-83
2021/05/03 11:08:29;;;;;;;2.97;2.70;;;9.60;75.00;;;;;;5037136;28;20205;-83
2021/05/03 11:11:03;;;;;;;3.80;3.40;;;9.70;75.40;;;;;;5035867;28;20203;-82
2021/05/03 11:14:08;;;;;;;4.43;2.73;;;9.90;75.40;;;;;;5020208;28;20197;-84
2021/05/03 11:17:04;;;;;;;4.37;3.20;;;10.20;74.70;;;;;;5022565;28;20273;-84
2021/05/03 11:19:37;;;;;;;2.53;2.33;;;10.40;74.70;;;;;;5020278;28;20207;-83
2021/05/03 11:22:09;;;;;;;2.87;2.50;;;10.00;77.10;;;;;;5024115;28;20289;-83
2021/05/03 11:24:46;;;;;;;2.17;2.07;;;9.60;78.80;;;;;;5023045;28;20359;-86
2021/05/03 11:27:19;;;;;;;2.27;2.07;;;9.50;79.90;;;;;;5025308;28;20489;-82
2021/05/03 11:29:50;;;;;;;2.30;2.07;;;9.60;80.80;;;;;;5023423;28;20203;-82
2021/05/03 11:32:18;;;;;;;5.33;2.30;;;9.80;80.50;;;;;;5023827;28;20231;-84
2021/05/03 11:34:54;;;;;;;3.07;2.37;;;10.00;79.90;;;;;;5024603;28;20290;-82
2021/05/03 11:37:33;;;;;;;2.43;2.20;;;10.40;80.40;;;;;;5023608;28;20322;-84
2021/05/03 11:40:08;;;;;;;3.03;2.40;;;10.90;79.50;;;;;;5034555;28;20270;-83
2021/05/03 11:45:32;;;;;;;2.67;2.30;;;11.30;78.00;;;;;;5031353;28;20203;-81
2021/05/03 11:48:00;;;;;;;2.60;2.40;;;11.60;76.90;;;;;;5023948;28;20207;-82
2021/05/03 11:50:30;;;;;;;2.40;2.20;;;11.90;76.90;;;;;;5024422;28;20278;-81
2021/05/03 11:53:01;;;;;;;2.50;2.30;;;11.90;74.60;;;;;;5025322;28;20211;-81
2021/05/03 11:55:29;;;;;;;2.83;2.37;;;12.00;75.00;;;;;;5025599;28;20233;-85
2021/05/03 11:57:58;;;;;;;2.60;2.40;;;12.10;73.70;;;;;;5021937;28;20792;-82
2021/05/03 12:00:27;;;;;;;3.27;2.53;;;12.20;73.50;;;;;;5022896;28;20207;-81
2021/05/03 12:03:03;;;;;;;2.80;2.60;;;12.30;73.40;;;;;;5015354;28;20560;-84
2021/05/03 12:05:33;;;;;;;3.27;2.13;;;12.00;72.90;;;;;;5017216;28;20309;-83
2021/05/03 12:08:13;;;;;;;3.37;2.27;;;12.00;73.40;;;;;;5016212;28;20623;-81
2021/05/03 12:10:41;;;;;;;2.63;2.33;;;12.00;72.70;;;;;;5025200;28;20627;-82
2021/05/03 12:13:14;;;;;;;3.50;2.80;;;11.60;72.80;;;;;;5029388;28;20207;-83
2021/05/03 12:15:42;;;;;;;5.43;2.93;;;11.20;73.30;;;;;;5021689;28;20427;-81
2021/05/03 12:18:17;;;;;;;3.43;3.13;;;10.70;74.60;;;;;;5030565;28;20233;-81
2021/05/03 12:20:45;;;;;;;4.80;3.30;;;10.40;74.80;;;;;;5020953;28;20520;-83
2021/05/03 12:23:15;;;;;;;3.70;3.40;;;10.10;75.40;;;;;;5022276;28;20199;-84
2021/05/03 12:25:45;;;;;;;5.33;4.10;;;9.90;76.00;;;;;;5016423;28;20571;-82
2021/05/03 12:28:14;;;;;;;5.13;4.10;;;10.10;75.90;;;;;;5024209;28;20210;-82
2021/05/03 12:30:43;;;;;;;4.27;3.87;;;10.20;75.40;;;;;;5031034;28;20198;-83
2021/05/03 12:33:13;;;;;;;3.60;3.40;;;10.30;74.90;;;;;;5026905;28;20214;-83
2021/05/03 12:35:41;;;;;;;5.77;4.20;;;10.30;75.40;;;;;;5036427;28;20236;-80
2021/05/03 12:38:22;;;;;;;5.33;4.30;;;10.40;75.20;;;;;;5036748;28;20206;-83
2021/05/03 12:40:50;;;;;;;5.43;4.93;;;10.40;75.00;;;;;;5022804;28;20191;-83
2021/05/03 12:43:23;;;;;;;5.87;5.07;;;10.40;75.50;;;;;;5025568;28;20203;-81
2021/05/03 12:46:01;;;;;;;5.30;4.80;;;10.60;75.80;;;;;;5034935;28;20201;-83
2021/05/03 12:48:35;;;;;;;5.90;4.87;;;10.80;75.70;;;;;;5029144;28;20266;-82
2021/05/03 12:51:28;;;;;;;7.10;5.27;;;10.80;75.50;;;;;;5019229;28;20242;-83
2021/05/03 12:54:12;;;;;;;7.50;5.57;;;11.10;75.80;;;;;;5023472;28;20269;-82
2021/05/03 12:56:58;;;;;;;6.47;5.10;;;11.10;76.40;;;;;;5020752;28;20213;-83
2021/05/03 12:59:38;;;;;;;7.10;5.80;;;10.80;76.50;;;;;;5016845;28;20223;-83
2021/05/03 13:02:16;;;;;;;6.87;5.43;;;10.40;77.90;;;;;;5018368;28;20341;-84
2021/05/03 13:04:51;;;;;;;6.00;5.40;;;10.30;78.30;;;;;;5018260;28;20209;-83
2021/05/03 13:10:49;;;;;;;5.87;5.33;;;10.00;80.10;;;;;;5016751;28;20210;-85
2021/05/03 13:24:43;;;;;;;5.73;4.93;;;9.00;84.40;;;;;;5021776;28;20206;-82
2021/05/03 13:29:49;;;;;;;6.43;5.63;;;9.20;83.40;;;;;;5020811;28;20226;-84
2021/05/03 13:32:23;;;;;;;5.23;4.70;;;9.40;82.70;;;;;;5020811;28;20754;-83
2021/05/03 13:34:51;;;;;;;6.03;5.17;;;9.70;81.20;;;;;;5018630;28;20726;-83
2021/05/03 13:37:19;;;;;;;6.77;5.43;;;9.80;80.80;;;;;;5022109;28;20276;-82
2021/05/03 13:40:08;;;;;;;5.53;5.03;;;9.90;80.70;;;;;;5021735;28;20214;-81
2021/05/03 13:42:39;;;;;;;5.90;5.30;;;10.10;81.00;;;;;;5021590;28;20689;-81
2021/05/03 13:45:08;;;;;;;6.00;5.40;;;10.40;80.50;;;;;;5018008;28;20210;-80
2021/05/03 13:47:36;;;;;;;6.00;5.10;;;10.80;80.40;;;;;;5026191;28;20195;-81